createdAt,value
2018-05-10T00:00:19.187Z,59.10
2018-05-10T00:02:22.371Z,59.40
2018-05-10T00:04:24.800Z,59.40
2018-05-10T00:06:27.324Z,60.10
2018-05-10T00:08:29.802Z,59.60
2018-05-10T00:10:32.228Z,59.50
2018-05-10T00:12:35.421Z,59.60
2018-05-10T00:14:38.644Z,59.80
2018-05-10T00:16:41.086Z,59.80
2018-05-10T00:18:44.301Z,59.70
2018-05-10T00:20:46.737Z,59.60
2018-05-10T00:22:49.927Z,59.70
2018-05-10T00:24:53.128Z,59.90
2018-05-10T00:26:55.621Z,59.80
2018-05-10T00:28:58.056Z,59.90
2018-05-10T00:31:01.272Z,59.60
2018-05-10T00:33:03.744Z,59.60
2018-05-10T00:35:06.212Z,59.90
2018-05-10T00:37:08.640Z,59.80
2018-05-10T00:39:11.843Z,60.30
2018-05-10T00:41:15.052Z,60.10
2018-05-10T00:43:17.480Z,60.10
2018-05-10T00:45:20.722Z,61.10
2018-05-10T00:47:23.151Z,60.50
2018-05-10T00:49:26.368Z,61.00
2018-05-10T00:51:28.852Z,61.00
2018-05-10T00:53:31.275Z,60.90
2018-05-10T00:55:34.472Z,61.50
2018-05-10T00:57:36.913Z,61.40
2018-05-10T00:59:39.450Z,61.60
2018-05-10T01:01:41.872Z,61.70
2018-05-10T01:03:45.093Z,62.20
2018-05-10T01:05:47.528Z,62.10
2018-05-10T01:07:50.753Z,62.30
2018-05-10T01:09:53.937Z,62.20
2018-05-10T01:11:56.364Z,62.40
2018-05-10T01:13:59.556Z,62.10
2018-05-10T01:16:02.767Z,62.10
2018-05-10T01:18:05.201Z,62.10
2018-05-10T01:20:07.641Z,62.30
2018-05-10T01:22:10.071Z,62.30
2018-05-10T01:24:12.516Z,62.30
2018-05-10T01:26:15.752Z,63.00
2018-05-10T01:28:18.188Z,62.90
2018-05-10T01:30:21.390Z,63.50
2018-05-10T01:32:23.837Z,63.50
2018-05-10T01:34:27.048Z,63.90
2018-05-10T01:36:29.860Z,63.90
2018-05-10T01:38:32.294Z,63.80
2018-05-10T01:40:34.732Z,64.00
2018-05-10T01:42:37.168Z,63.80
2018-05-10T01:44:39.620Z,64.10
2018-05-10T01:46:42.101Z,63.70
2018-05-10T01:48:44.561Z,63.50
2018-05-10T01:50:47.032Z,63.40
2018-05-10T01:52:49.469Z,63.40
2018-05-10T01:54:52.676Z,64.00
2018-05-10T01:56:55.104Z,63.90
2018-05-10T01:58:57.633Z,64.10
2018-05-10T02:01:00.073Z,64.50
2018-05-10T02:03:02.573Z,64.30
2018-05-10T02:05:05.601Z,64.30
2018-05-10T02:07:08.142Z,64.40
2018-05-10T02:09:10.613Z,64.20
2018-05-10T02:11:13.065Z,64.10
2018-05-10T02:13:15.537Z,64.80
2018-05-10T02:15:17.968Z,65.10
2018-05-10T02:17:21.169Z,65.50
2018-05-10T02:19:23.604Z,65.50
2018-05-10T02:21:26.064Z,65.40
2018-05-10T02:23:28.504Z,65.80
2018-05-10T02:25:30.947Z,65.80
2018-05-10T02:27:34.165Z,65.90
2018-05-10T02:29:36.611Z,65.80
2018-05-10T02:31:39.796Z,65.90
2018-05-10T02:33:42.232Z,65.90
2018-05-10T02:35:44.668Z,66.40
2018-05-10T02:37:47.130Z,66.70
2018-05-10T02:39:49.558Z,66.60
2018-05-10T02:41:52.765Z,67.00
2018-05-10T02:43:55.200Z,66.90
2018-05-10T02:45:57.724Z,67.10
2018-05-10T02:48:00.716Z,67.30
2018-05-10T02:50:03.194Z,67.40
2018-05-10T02:52:05.636Z,67.60
2018-05-10T02:54:08.074Z,67.80
2018-05-10T02:56:11.303Z,67.90
2018-05-10T02:58:13.775Z,67.90
2018-05-10T03:00:16.244Z,67.70
2018-05-10T03:02:18.718Z,67.60
2018-05-10T03:04:21.187Z,67.60
2018-05-10T03:06:23.654Z,67.50
2018-05-10T03:08:26.080Z,67.80
2018-05-10T03:10:29.314Z,68.10
2018-05-10T03:12:31.745Z,68.10
2018-05-10T03:14:34.956Z,68.90
2018-05-10T03:16:37.392Z,68.90
2018-05-10T03:18:39.908Z,69.10
2018-05-10T03:20:42.340Z,69.40
2018-05-10T03:22:45.561Z,69.60
2018-05-10T03:24:48.039Z,69.50
2018-05-10T03:26:50.472Z,70.00
2018-05-10T03:28:53.696Z,70.40
2018-05-10T03:30:56.160Z,70.20
2018-05-10T03:32:58.595Z,70.20
2018-05-10T03:35:01.788Z,70.40
2018-05-10T03:37:04.299Z,70.40
2018-05-10T03:39:06.757Z,70.50
2018-05-10T03:41:09.237Z,70.30
2018-05-10T03:43:11.680Z,70.30
2018-05-10T03:45:14.175Z,70.40
2018-05-10T03:47:16.608Z,70.40
2018-05-10T03:49:19.048Z,70.60
2018-05-10T03:51:21.497Z,70.80
2018-05-10T03:53:23.958Z,70.90
2018-05-10T03:55:26.447Z,70.70
2018-05-10T03:57:29.597Z,70.90
2018-05-10T03:59:32.088Z,70.90
2018-05-10T04:01:34.528Z,70.80
2018-05-10T04:03:48.997Z,71.00
2018-05-10T04:06:03.248Z,71.00
2018-05-10T04:08:17.503Z,70.90
2018-05-10T04:10:32.045Z,70.90
2018-05-10T04:12:34.485Z,71.20
2018-05-10T04:14:36.925Z,71.50
2018-05-10T04:16:39.383Z,71.70
2018-05-10T04:18:41.821Z,72.30
2018-05-10T04:20:44.301Z,72.10
2018-05-10T04:22:46.763Z,72.20
2018-05-10T04:24:49.201Z,72.10
2018-05-10T04:26:51.657Z,72.10
2018-05-10T04:28:54.892Z,72.20
2018-05-10T04:30:58.327Z,72.20
2018-05-10T04:33:00.852Z,71.90
2018-05-10T04:35:03.294Z,72.40
2018-05-10T04:37:06.612Z,71.40
2018-05-10T04:39:09.049Z,71.40
2018-05-10T04:41:12.253Z,71.10
2018-05-10T04:43:14.692Z,71.10
2018-05-10T04:45:17.905Z,70.40
2018-05-10T04:47:20.337Z,70.20
2018-05-10T04:49:22.865Z,70.50
2018-05-10T04:51:25.305Z,68.70
2018-05-10T04:53:28.516Z,68.70
2018-05-10T04:55:30.960Z,68.70
2018-05-10T04:57:34.180Z,68.00
2018-05-10T04:59:36.648Z,68.00
2018-05-10T05:01:39.089Z,67.80
2018-05-10T05:03:42.308Z,67.60
2018-05-10T05:05:44.749Z,67.60
2018-05-10T05:07:47.946Z,67.80
2018-05-10T05:09:50.432Z,67.80
2018-05-10T05:11:53.326Z,67.90
2018-05-10T05:13:56.484Z,67.70
2018-05-10T05:15:58.982Z,67.70
2018-05-10T05:18:01.427Z,67.50
2018-05-10T05:20:04.620Z,66.90
2018-05-10T05:22:07.069Z,66.90
2018-05-10T05:24:10.277Z,66.50
2018-05-10T05:26:12.712Z,66.40
2018-05-10T05:28:15.940Z,67.20
2018-05-10T05:30:19.328Z,67.10
2018-05-10T05:32:21.777Z,67.80
2018-05-10T05:34:25.010Z,68.40
2018-05-10T05:36:27.429Z,68.20
2018-05-10T05:38:30.622Z,68.00
2018-05-10T05:40:33.048Z,68.00
2018-05-10T05:42:35.592Z,68.30
2018-05-10T05:44:38.020Z,68.30
2018-05-10T05:46:41.216Z,68.20
2018-05-10T05:48:43.653Z,68.20
2018-05-10T05:50:46.086Z,68.10
2018-05-10T05:52:48.557Z,68.30
2018-05-10T05:54:51.005Z,68.60
2018-05-10T05:56:53.499Z,68.40
2018-05-10T05:58:55.934Z,68.60
2018-05-10T06:00:59.151Z,69.30
2018-05-10T06:03:01.589Z,69.30
2018-05-10T06:05:04.780Z,70.50
2018-05-10T06:07:07.216Z,70.50
2018-05-10T06:09:09.766Z,71.70
2018-05-10T06:11:12.202Z,72.60
2018-05-10T06:13:14.713Z,73.10
2018-05-10T06:15:17.165Z,73.70
2018-05-10T06:17:19.628Z,74.00
2018-05-10T06:19:22.064Z,73.70
2018-05-10T06:21:25.257Z,73.00
2018-05-10T06:23:27.709Z,73.00
2018-05-10T06:25:30.903Z,72.80
2018-05-10T06:27:34.141Z,71.80
2018-05-10T06:29:36.571Z,71.70
2018-05-10T06:31:39.068Z,72.10
2018-05-10T06:33:41.542Z,71.00
2018-05-10T06:35:44.014Z,70.10
2018-05-10T06:37:46.453Z,69.90
2018-05-10T06:39:49.672Z,68.70
2018-05-10T06:41:52.151Z,68.60
2018-05-10T06:43:54.576Z,67.20
2018-05-10T06:45:57.788Z,64.30
2018-05-10T06:48:00.224Z,64.30
2018-05-10T06:50:03.458Z,61.80
2018-05-10T06:52:05.889Z,61.70
2018-05-10T06:54:09.091Z,60.10
2018-05-10T06:56:11.580Z,60.00
2018-05-10T06:58:14.052Z,59.50
2018-05-10T07:00:16.485Z,59.00
2018-05-10T07:02:20.436Z,58.10
2018-05-10T07:04:22.896Z,58.10
2018-05-10T07:06:25.364Z,57.80
2018-05-10T07:08:27.791Z,57.90
2018-05-10T07:10:31.021Z,57.80
2018-05-10T07:12:33.496Z,57.80
2018-05-10T07:14:35.964Z,57.80
2018-05-10T07:16:38.436Z,59.30
2018-05-10T07:18:41.509Z,59.40
2018-05-10T07:20:44.944Z,60.30
2018-05-10T07:22:47.488Z,59.70
2018-05-10T07:24:49.912Z,59.60
2018-05-10T07:26:53.113Z,59.40
2018-05-10T07:28:56.324Z,59.80
2018-05-10T07:30:58.805Z,59.80
2018-05-10T07:33:01.281Z,59.40
2018-05-10T07:35:03.709Z,59.00
2018-05-10T07:37:06.930Z,58.90
2018-05-10T07:39:09.396Z,58.80
2018-05-10T07:41:11.869Z,59.70
2018-05-10T07:43:14.317Z,59.30
2018-05-10T07:45:16.804Z,59.20
2018-05-10T07:47:19.241Z,58.60
2018-05-10T07:49:22.432Z,57.70
2018-05-10T07:51:25.652Z,57.30
2018-05-10T07:53:28.117Z,57.30
2018-05-10T07:55:30.549Z,56.40
2018-05-10T07:57:33.758Z,55.60
2018-05-10T07:59:36.249Z,55.60
2018-05-10T08:01:38.677Z,55.20
2018-05-10T08:03:41.905Z,54.10
2018-05-10T08:05:44.336Z,53.90
2018-05-10T08:07:47.628Z,52.90
2018-05-10T08:09:50.809Z,53.40
2018-05-10T08:11:54.125Z,52.40
2018-05-10T08:13:57.313Z,52.40
2018-05-10T08:15:59.756Z,52.40
2018-05-10T08:18:02.951Z,52.60
2018-05-10T08:20:06.492Z,51.90
2018-05-10T08:22:08.933Z,51.90
2018-05-10T08:24:11.454Z,51.40
2018-05-10T08:26:13.788Z,51.50
2018-05-10T08:28:16.238Z,52.00
2018-05-10T08:30:18.768Z,51.10
2018-05-10T08:32:21.917Z,52.00
2018-05-10T08:34:24.357Z,52.00
2018-05-10T08:36:26.918Z,51.60
2018-05-10T08:38:29.306Z,52.00
2018-05-10T08:40:31.736Z,50.80
2018-05-10T08:42:34.978Z,51.10
2018-05-10T08:44:37.537Z,51.30
2018-05-10T08:46:41.512Z,50.10
2018-05-10T08:48:44.717Z,50.60
2018-05-10T08:50:47.217Z,50.60
2018-05-10T08:52:49.653Z,50.40
2018-05-10T08:54:52.877Z,49.80
2018-05-10T08:56:55.313Z,49.70
2018-05-10T08:58:58.513Z,50.70
2018-05-10T09:01:01.002Z,50.00
2018-05-10T09:03:03.472Z,50.30
2018-05-10T09:05:05.940Z,50.30
2018-05-10T09:07:08.410Z,50.50
2018-05-10T09:09:10.868Z,49.40
2018-05-10T09:11:13.449Z,48.40
2018-05-10T09:13:15.920Z,47.50
2018-05-10T09:15:18.352Z,47.70
2018-05-10T09:17:21.552Z,47.90
2018-05-10T09:19:24.048Z,47.90
2018-05-10T09:21:26.529Z,47.40
2018-05-10T09:23:28.956Z,47.30
2018-05-10T09:25:32.166Z,46.30
2018-05-10T09:27:34.595Z,46.20
2018-05-10T09:29:37.832Z,46.50
2018-05-10T09:31:40.304Z,46.40
2018-05-10T09:33:43.474Z,45.40
2018-05-10T09:35:45.964Z,45.30
2018-05-10T09:37:48.406Z,45.60
2018-05-10T09:39:51.606Z,45.50
2018-05-10T09:41:54.101Z,45.50
2018-05-10T09:43:56.536Z,45.40
2018-05-10T09:45:58.983Z,45.10
2018-05-10T09:48:02.220Z,46.50
2018-05-10T09:50:04.672Z,46.20
2018-05-10T09:52:07.182Z,47.30
2018-05-10T09:54:09.614Z,47.90
2018-05-10T09:56:12.057Z,49.80
2018-05-10T09:58:15.267Z,52.20
2018-05-10T10:00:23.462Z,52.20
2018-05-10T10:02:26.652Z,53.60
2018-05-10T10:04:29.144Z,53.60
2018-05-10T10:06:31.620Z,53.30
2018-05-10T10:08:34.089Z,52.40
2018-05-10T10:10:36.569Z,53.20
2018-05-10T10:12:39.027Z,52.80
2018-05-10T10:14:41.596Z,52.80
2018-05-10T10:16:44.130Z,53.00
2018-05-10T10:18:47.321Z,53.90
2018-05-10T10:20:50.660Z,54.30
2018-05-10T10:22:53.092Z,54.30
2018-05-10T10:24:56.296Z,53.90
2018-05-10T10:26:58.728Z,54.00
2018-05-10T10:29:01.152Z,54.10
2018-05-10T10:31:03.599Z,55.80
2018-05-10T10:33:06.061Z,55.00
2018-05-10T10:35:09.280Z,56.60
2018-05-10T10:37:11.746Z,56.60
2018-05-10T10:39:14.177Z,56.10
2018-05-10T10:41:17.403Z,56.00
2018-05-10T10:43:19.845Z,55.90
2018-05-10T10:45:23.104Z,57.10
2018-05-10T10:47:25.500Z,57.00
2018-05-10T10:49:28.129Z,57.10
2018-05-10T10:51:30.676Z,56.80
2018-05-10T10:53:33.149Z,57.40
2018-05-10T10:55:35.616Z,57.90
2018-05-10T10:57:38.084Z,58.40
2018-05-10T10:59:40.557Z,58.90
2018-05-10T11:01:43.063Z,59.20
2018-05-10T11:03:46.200Z,59.90
2018-05-10T11:05:48.688Z,59.90
2018-05-10T11:07:51.125Z,60.60
2018-05-10T11:09:53.627Z,61.00
2018-05-10T11:11:56.114Z,60.20
2018-05-10T11:13:58.545Z,61.30
2018-05-10T11:16:00.989Z,60.90
2018-05-10T11:18:04.180Z,61.70
2018-05-10T11:20:07.389Z,63.20
2018-05-10T11:22:09.824Z,63.00
2018-05-10T11:24:12.261Z,62.70
2018-05-10T11:26:14.709Z,62.10
2018-05-10T11:28:17.140Z,61.80
2018-05-10T11:30:20.345Z,62.00
2018-05-10T11:32:23.548Z,61.30
2018-05-10T11:34:25.989Z,61.20
2018-05-10T11:36:28.500Z,61.70
2018-05-10T11:38:30.972Z,61.20
2018-05-10T11:40:33.412Z,61.70
2018-05-10T11:42:36.612Z,61.90
2018-05-10T11:44:39.102Z,61.80
2018-05-10T11:46:41.537Z,62.00
2018-05-10T11:48:44.845Z,61.00
2018-05-10T11:50:47.217Z,60.80
2018-05-10T11:52:49.701Z,60.80
2018-05-10T11:54:52.169Z,60.20
2018-05-10T11:56:54.640Z,60.90
2018-05-10T11:58:57.080Z,61.10
2018-05-10T12:00:59.517Z,61.00
2018-05-10T12:03:02.034Z,61.00
2018-05-10T12:05:04.492Z,60.20
2018-05-10T12:07:06.924Z,60.50
2018-05-10T12:09:09.362Z,60.70
2018-05-10T12:11:11.800Z,61.20
2018-05-10T12:13:14.296Z,60.70
2018-05-10T12:15:16.731Z,60.40
2018-05-10T12:17:19.953Z,60.50
2018-05-10T12:19:22.429Z,60.60
2018-05-10T12:21:24.892Z,60.60
2018-05-10T12:23:27.365Z,61.20
2018-05-10T12:25:29.887Z,60.80
2018-05-10T12:27:32.316Z,60.60
2018-05-10T12:29:34.785Z,60.80
2018-05-10T12:31:37.217Z,61.00
2018-05-10T12:33:40.440Z,59.20
2018-05-10T12:35:42.866Z,59.30
2018-05-10T12:37:46.185Z,59.20
2018-05-10T12:39:48.529Z,59.10
2018-05-10T12:41:51.733Z,58.60
2018-05-10T12:43:54.161Z,58.60
2018-05-10T12:45:56.695Z,57.60
2018-05-10T12:47:59.121Z,56.50
2018-05-10T12:50:02.345Z,58.10
2018-05-10T12:52:04.816Z,58.00
2018-05-10T12:54:07.244Z,58.10
2018-05-10T12:56:10.500Z,58.50
2018-05-10T12:58:13.148Z,58.40
2018-05-10T13:00:15.620Z,58.20
2018-05-10T13:02:18.051Z,58.20
2018-05-10T13:04:21.281Z,57.60
2018-05-10T13:06:23.716Z,57.60
2018-05-10T13:08:26.305Z,57.50
2018-05-10T13:10:28.644Z,58.20
2018-05-10T13:12:31.875Z,58.50
2018-05-10T13:14:34.349Z,58.50
2018-05-10T13:16:36.786Z,58.00
2018-05-10T13:18:39.216Z,58.40
2018-05-10T13:20:41.757Z,59.10
2018-05-10T13:22:44.192Z,60.30
2018-05-10T13:24:47.401Z,59.90
2018-05-10T13:26:49.850Z,59.80
2018-05-10T13:28:53.112Z,60.20
2018-05-10T13:30:55.540Z,60.20
2018-05-10T13:32:57.980Z,61.20
2018-05-10T13:35:01.197Z,60.80
2018-05-10T13:37:03.638Z,61.80
2018-05-10T13:39:06.091Z,61.90
2018-05-10T13:41:08.604Z,61.70
2018-05-10T13:43:11.040Z,62.20
2018-05-10T13:45:14.372Z,63.10
2018-05-10T13:47:17.399Z,63.00
2018-05-10T13:49:20.509Z,61.60
2018-05-10T13:51:23.013Z,61.60
2018-05-10T13:53:25.477Z,61.90
2018-05-10T13:55:27.913Z,62.80
2018-05-10T13:57:31.141Z,62.00
2018-05-10T13:59:33.578Z,62.00
2018-05-10T14:01:36.771Z,61.80
2018-05-10T14:03:39.213Z,62.60
2018-05-10T14:05:41.644Z,62.50
2018-05-10T14:07:44.085Z,63.00
2018-05-10T14:09:47.358Z,63.80
2018-05-10T14:11:50.563Z,63.20
2018-05-10T14:13:53.134Z,63.20
2018-05-10T14:15:56.337Z,63.80
2018-05-10T14:17:58.846Z,63.80
2018-05-10T14:20:01.276Z,65.60
2018-05-10T14:22:03.796Z,64.60
2018-05-10T14:24:06.218Z,65.20
2018-05-10T14:26:08.693Z,64.10
2018-05-10T14:28:11.120Z,64.10
2018-05-10T14:30:14.360Z,64.00
2018-05-10T14:32:16.771Z,64.00
2018-05-10T14:34:20.824Z,63.00
2018-05-10T14:36:23.260Z,62.90
2018-05-10T14:38:26.480Z,63.40
2018-05-10T14:40:28.952Z,63.30
2018-05-10T14:42:31.416Z,63.00
2018-05-10T14:44:33.841Z,62.90
2018-05-10T14:46:36.414Z,62.20
2018-05-10T14:48:38.810Z,62.40
2018-05-10T14:50:41.301Z,62.70
2018-05-10T14:52:43.740Z,61.60
2018-05-10T14:54:46.241Z,62.20
2018-05-10T14:56:48.672Z,61.70
2018-05-10T14:58:51.903Z,61.90
2018-05-10T15:00:54.369Z,61.80
2018-05-10T15:02:56.812Z,62.80
2018-05-10T15:05:00.020Z,63.10
2018-05-10T15:07:02.464Z,63.10
2018-05-10T15:09:04.936Z,63.10
2018-05-10T15:11:08.176Z,63.20
2018-05-10T15:13:10.630Z,63.30
2018-05-10T15:15:13.052Z,63.80
2018-05-10T15:17:16.289Z,63.10
2018-05-10T15:19:18.747Z,63.00
2018-05-10T15:21:21.220Z,63.50
2018-05-10T15:23:23.657Z,64.50
2018-05-10T15:25:27.911Z,64.20
2018-05-10T15:27:30.337Z,64.10
2018-05-10T15:29:33.559Z,64.70
2018-05-10T15:31:36.041Z,64.70
2018-05-10T15:33:38.465Z,65.00
2018-05-10T15:35:41.667Z,62.90
2018-05-10T15:37:44.111Z,62.90
2018-05-10T15:39:47.336Z,63.40
2018-05-10T15:41:49.772Z,63.40
2018-05-10T15:43:52.973Z,63.30
2018-05-10T15:45:55.465Z,63.20
2018-05-10T15:47:57.937Z,63.90
2018-05-10T15:50:00.368Z,65.00
2018-05-10T15:52:03.673Z,65.00
2018-05-10T15:54:06.117Z,65.00
2018-05-10T15:56:08.644Z,63.90
2018-05-10T15:58:11.090Z,64.40
2018-05-10T16:00:13.577Z,63.80
2018-05-10T16:02:16.063Z,63.60
2018-05-10T16:04:18.522Z,64.80
2018-05-10T16:06:20.954Z,63.20
2018-05-10T16:08:24.191Z,62.70
2018-05-10T16:10:26.649Z,62.60
2018-05-10T16:12:29.065Z,62.70
2018-05-10T16:14:31.601Z,63.50
2018-05-10T16:16:34.056Z,63.40
2018-05-10T16:18:36.526Z,63.50
2018-05-10T16:20:38.957Z,61.80
2018-05-10T16:22:42.184Z,63.10
2018-05-10T16:24:44.625Z,63.10
2018-05-10T16:26:47.844Z,62.40
2018-05-10T16:28:50.325Z,62.40
2018-05-10T16:30:52.874Z,62.30
2018-05-10T16:32:56.084Z,62.70
2018-05-10T16:34:58.505Z,62.70
2018-05-10T16:37:01.700Z,62.60
2018-05-10T16:39:05.731Z,61.60
2018-05-10T16:41:08.165Z,61.60
2018-05-10T16:43:11.370Z,62.30
2018-05-10T16:45:13.800Z,62.20
2018-05-10T16:47:16.233Z,61.50
2018-05-10T16:49:18.709Z,61.50
2018-05-10T16:51:21.132Z,61.80
2018-05-10T16:53:24.420Z,63.10
2018-05-10T16:55:26.772Z,63.10
2018-05-10T16:57:29.206Z,63.10
2018-05-10T16:59:31.680Z,63.10
2018-05-10T17:01:34.107Z,61.90
2018-05-10T17:03:43.444Z,63.10
2018-05-10T17:05:45.955Z,63.10
2018-05-10T17:07:48.421Z,63.30
2018-05-10T17:09:50.877Z,63.80
2018-05-10T17:11:53.356Z,63.80
2018-05-10T17:13:55.805Z,63.70
2018-05-10T17:15:58.231Z,64.60
2018-05-10T17:18:00.764Z,65.20
2018-05-10T17:20:03.211Z,63.80
2018-05-10T17:22:05.640Z,64.50
2018-05-10T17:24:08.077Z,65.30
2018-05-10T17:26:10.513Z,65.90
2018-05-10T17:28:13.721Z,68.30
2018-05-10T17:30:16.191Z,68.30
2018-05-10T17:32:18.623Z,69.10
2018-05-10T17:34:21.063Z,70.20
2018-05-10T17:36:23.508Z,70.80
2018-05-10T17:38:25.936Z,71.20
2018-05-10T17:40:29.274Z,72.00
2018-05-10T17:42:31.702Z,72.00
2018-05-10T17:44:34.908Z,72.90
2018-05-10T17:46:37.402Z,72.80
2018-05-10T17:48:39.831Z,71.90
2018-05-10T17:50:43.056Z,71.50
2018-05-10T17:52:45.489Z,71.40
2018-05-10T17:54:49.535Z,72.00
2018-05-10T17:56:51.992Z,72.00
2018-05-10T18:01:27.438Z,73.30
2018-05-10T18:03:29.920Z,74.30
2018-05-10T18:05:32.396Z,73.40
2018-05-10T18:07:34.838Z,73.60
2018-05-10T18:09:38.044Z,73.70
2018-05-10T18:11:40.516Z,73.70
2018-05-10T18:13:43.018Z,73.70
2018-05-10T18:15:46.149Z,74.10
2018-05-10T18:17:49.341Z,74.60
2018-05-10T18:19:51.901Z,74.50
2018-05-10T18:21:55.108Z,76.20
2018-05-10T18:23:57.536Z,76.10
2018-05-10T18:25:59.968Z,76.00
2018-05-10T18:28:02.408Z,75.90
2018-05-10T18:30:05.604Z,75.10
2018-05-10T18:32:08.032Z,75.10
2018-05-10T18:34:10.467Z,75.60
2018-05-10T18:36:13.018Z,75.00
2018-05-10T18:38:15.442Z,74.50
2018-05-10T18:40:17.876Z,75.20
2018-05-10T18:42:20.301Z,74.50
2018-05-10T18:44:23.532Z,74.90
2018-05-10T18:46:26.083Z,74.90
2018-05-10T18:48:28.429Z,74.30
2018-05-10T18:50:31.638Z,74.00
2018-05-10T18:52:34.120Z,73.90
2018-05-10T18:54:36.620Z,73.40
2018-05-10T18:56:39.074Z,74.10
2018-05-10T18:58:41.551Z,73.70
2018-05-10T19:00:43.980Z,73.80
2018-05-10T19:02:46.408Z,73.30
2018-05-10T19:04:48.851Z,73.70
2018-05-10T19:06:51.367Z,73.40
2018-05-10T19:08:53.763Z,72.20
2018-05-10T19:10:56.192Z,72.00
2018-05-10T19:12:59.380Z,70.70
2018-05-10T19:15:02.585Z,70.50
2018-05-10T19:17:05.098Z,70.60
2018-05-10T19:19:07.538Z,70.60
2018-05-10T19:21:10.748Z,70.10
2018-05-10T19:23:13.224Z,70.10
2018-05-10T19:25:15.698Z,69.70
2018-05-10T19:27:18.168Z,69.60
2018-05-10T19:29:20.606Z,69.30
2018-05-10T19:31:23.845Z,69.50
2018-05-10T19:33:26.280Z,69.50
2018-05-10T19:35:28.716Z,68.70
2018-05-10T19:37:31.152Z,69.00
2018-05-10T19:39:33.588Z,69.00
2018-05-10T19:41:36.040Z,68.50
2018-05-10T19:43:39.240Z,69.00
2018-05-10T19:45:41.672Z,68.90
2018-05-10T19:47:44.104Z,68.40
2018-05-10T19:49:46.558Z,68.40
2018-05-10T19:51:49.043Z,68.60
2018-05-10T19:53:51.512Z,68.10
2018-05-10T19:55:53.936Z,68.20
2018-05-10T19:57:57.163Z,67.90
2018-05-10T19:59:59.633Z,67.90
2018-05-10T20:02:02.062Z,67.90
2018-05-10T20:04:05.252Z,68.50
2018-05-10T20:06:08.546Z,68.40
2018-05-10T20:08:10.957Z,68.30
2018-05-10T20:10:13.420Z,68.40
2018-05-10T20:12:15.955Z,68.50
2018-05-10T20:14:18.321Z,68.60
2018-05-10T20:16:21.517Z,69.80
2018-05-10T20:18:24.732Z,69.00
2018-05-10T20:20:27.204Z,69.00
2018-05-10T20:22:29.681Z,68.80
2018-05-10T20:24:32.533Z,69.10
2018-05-10T20:26:35.728Z,69.40
2018-05-10T20:28:38.173Z,69.30
2018-05-10T20:30:41.605Z,69.60
2018-05-10T20:32:44.044Z,69.80
2018-05-10T20:34:47.237Z,70.20
2018-05-10T20:36:50.488Z,70.20
2018-05-10T20:38:52.901Z,70.10
2018-05-10T20:40:55.328Z,70.60
2018-05-10T20:42:57.756Z,70.90
2018-05-10T20:45:00.184Z,70.80
2018-05-10T20:47:03.412Z,70.60
2018-05-10T20:49:05.889Z,70.60
2018-05-10T20:51:08.352Z,70.80
2018-05-10T20:53:10.771Z,70.80
2018-05-10T20:55:13.269Z,70.80
2018-05-10T20:57:15.660Z,71.50
2018-05-10T20:59:18.094Z,70.80
2018-05-10T21:01:21.296Z,71.20
2018-05-10T21:03:23.724Z,71.20
2018-05-10T21:05:26.266Z,71.10
2018-05-10T21:07:28.736Z,71.40
2018-05-10T21:09:31.165Z,71.60
2018-05-10T21:11:34.364Z,71.40
2018-05-10T21:13:36.856Z,71.40
2018-05-10T21:15:39.356Z,71.40
2018-05-10T21:17:41.780Z,71.90
2018-05-10T21:19:44.268Z,72.30
2018-05-10T21:21:46.700Z,71.90
2018-05-10T21:23:50.466Z,71.80
2018-05-10T21:25:52.905Z,71.80
2018-05-10T21:27:55.375Z,72.00
2018-05-10T21:29:57.809Z,72.00
2018-05-10T21:32:01.013Z,73.10
2018-05-10T21:34:03.474Z,73.10
2018-05-10T21:36:05.876Z,73.00
2018-05-10T21:38:08.308Z,73.90
2018-05-10T21:40:11.512Z,73.40
2018-05-10T21:42:13.954Z,73.40
2018-05-10T21:44:16.380Z,73.50
2018-05-10T21:46:18.820Z,73.40
2018-05-10T21:48:21.253Z,73.70
2018-05-10T21:50:27.538Z,73.50
2018-05-10T21:52:30.731Z,73.90
2018-05-10T21:54:33.152Z,73.80
2018-05-10T21:56:35.590Z,74.00
2018-05-10T21:58:38.022Z,73.90
2018-05-10T22:00:41.254Z,74.30
2018-05-10T22:02:43.684Z,74.20
2018-05-10T22:04:46.920Z,74.30
2018-05-10T22:06:49.376Z,74.30
2018-05-10T22:08:51.886Z,74.30
2018-05-10T22:10:55.033Z,74.40
2018-05-10T22:12:57.908Z,74.40
2018-05-10T22:15:00.345Z,74.50
2018-05-10T22:17:03.568Z,74.50
2018-05-10T22:19:05.994Z,74.30
2018-05-10T22:21:08.544Z,74.50
2018-05-10T22:23:11.092Z,75.40
2018-05-10T22:25:13.565Z,74.90
2018-05-10T22:27:16.028Z,75.00
2018-05-10T22:29:18.506Z,75.00
2018-05-10T22:31:20.953Z,75.00
2018-05-10T22:33:23.383Z,75.10
2018-05-10T22:35:26.028Z,75.40
2018-05-10T22:37:28.468Z,75.40
2018-05-10T22:39:30.903Z,75.40
2018-05-10T22:41:33.341Z,75.40
2018-05-10T22:43:35.809Z,75.30
2018-05-10T22:45:38.237Z,75.80
2018-05-10T22:47:40.668Z,75.70
2018-05-10T22:49:43.208Z,76.00
2018-05-10T22:51:45.676Z,76.30
2018-05-10T22:53:48.144Z,76.70
2018-05-10T22:55:50.711Z,76.80
2018-05-10T22:57:53.143Z,76.90
2018-05-10T22:59:56.277Z,77.00
2018-05-10T23:01:58.738Z,76.90
2018-05-10T23:04:01.216Z,76.80
2018-05-10T23:06:03.724Z,77.10
2018-05-10T23:08:06.112Z,77.10
2018-05-10T23:10:09.341Z,77.20
2018-05-10T23:12:11.820Z,77.20
2018-05-10T23:14:14.235Z,77.20
2018-05-10T23:16:17.445Z,77.40
2018-05-10T23:18:19.872Z,77.30
2018-05-10T23:20:22.304Z,77.30
2018-05-10T23:22:24.775Z,77.50
2018-05-10T23:24:27.205Z,77.50
2018-05-10T23:26:30.411Z,77.70
2018-05-10T23:28:33.664Z,77.90
2018-05-10T23:30:36.197Z,77.90
2018-05-10T23:32:38.659Z,77.90
2018-05-10T23:34:41.124Z,78.10
2018-05-10T23:36:43.564Z,78.00
2018-05-10T23:38:46.760Z,78.40
2018-05-10T23:40:49.254Z,78.00
2018-05-10T23:42:51.697Z,78.00
2018-05-10T23:44:54.921Z,78.10
2018-05-10T23:46:57.369Z,78.00
2018-05-10T23:48:59.796Z,78.30
2018-05-10T23:51:02.991Z,78.30
2018-05-10T23:53:05.648Z,78.30
2018-05-10T23:55:08.191Z,78.10
2018-05-10T23:57:10.661Z,78.60
2018-05-10T23:59:13.132Z,78.40
